Data for 02/13/2009

Time Sea-Level Adjusted Pressure Absolute Pressure Temperature Relative Humidity Dew Point   
(mb) (inHg) (mb) (inHg) (C) (F) (%) (C) (F)
00:05 1017 30.03 846 24.98 -5.4 22.3 63 -11.4 11.4
00:10 1017 30.03 846 24.98 -5.2 22.7 61 -11.6 11.1
00:15 1017 30.03 846 24.98 -5.2 22.7 63 -11.1 11.9
00:20 1017 30.03 846 24.98 -5.2 22.7 62 -11.3 11.6
00:25 1017 30.03 846 24.98 -5.5 22.1 64 -11.3 11.6
00:30 1017 30.03 846 24.98 -5.7 21.7 64 -11.5 11.4
00:35 1017 30.03 846 24.98 -5.7 21.8 64 -11.4 11.4
00:40 1017 30.03 846 24.98 -5.5 22 64 -11.3 11.6
00:45 1017 30.03 846 24.98 -5.5 22.1 64 -11.2 11.8
00:50 1017 30.03 846 24.98 -5.4 22.2 63 -11.4 11.5
00:55 1017 30.03 846 24.98 -5.6 21.9 64 -11.3 11.6
01:00 1017 30.03 846 24.98 -5.5 22.1 63 -11.5 11.3
01:05 1017 30.03 846 24.98 -5.7 21.8 64 -11.3 11.6
01:10 1017 30.03 846 24.98 -6 21.2 66 -11.3 11.6
01:15 1017 30.03 846 24.98 -6.2 20.8 66 -11.6 11.2
01:20 1017 30.03 846 24.98 -6.4 20.4 66 -11.7 10.9
01:25 1017 30.03 846 24.98 -6.5 20.2 67 -11.8 10.8
01:30 1017 30.03 846 24.98 -6.7 19.9 67 -12 10.5
01:35 1017 30.03 846 24.98 -6.6 20.1 66 -12 10.5
01:40 1017 30.03 846 24.98 -6.7 19.9 67 -11.9 10.5
01:45 1017 30.03 847 25.01 -6.8 19.7 67 -11.9 10.6
01:50 1017 30.03 847 25.01 -6.9 19.5 68 -11.9 10.5
01:55 1017 30.03 847 25.01 -6.9 19.5 68 -11.8 10.8
02:00 1017 30.03 847 25.01 -7 19.5 68 -11.9 10.6
02:05 1017 30.03 847 25.01 -7 19.4 68 -12 10.4
02:10 1017 30.03 847 25.01 -6.9 19.5 68 -11.9 10.5
02:15 1017 30.03 847 25.01 -7 19.4 68 -11.9 10.6
02:20 1017 30.03 847 25.01 -7.1 19.1 69 -12 10.5
02:25 1017 30.03 847 25.01 -7.3 19 69 -12.1 10.2
02:30 1017 30.03 847 25.01 -7.3 18.8 69 -12.1 10.2
02:35 1017 30.03 847 25.01 -7.3 18.8 69 -12.1 10.2
02:40 1017 30.03 847 25.01 -7.4 18.8 69 -12.1 10.3
02:45 1017 30.03 847 25.01 -7.4 18.6 70 -12.1 10.3
02:50 1017 30.03 847 25.01 -7.4 18.7 69 -12.2 10.1
02:55 1017 30.03 847 25.01 -7.2 19 68 -12.1 10.2
03:00 1017 30.03 847 25.01 -7.1 19.2 69 -11.9 10.5
03:05 1017 30.03 847 25.01 -7.1 19.2 69 -11.9 10.7
03:10 1017 30.03 847 25.01 -7.1 19.3 69 -11.9 10.5
03:15 1017 30.03 847 25.01 -7.1 19.1 69 -12 10.5
03:20 1017 30.03 847 25.01 -7 19.4 67 -12.1 10.3
03:25 1017 30.03 847 25.01 -6.7 19.9 67 -11.9 10.5
03:30 1017 30.03 847 25.01 -6.5 20.3 66 -11.8 10.7
03:35 1017 30.03 847 25.01 -6.8 19.7 68 -11.8 10.8
03:40 1018 30.06 847 25.01 -6.9 19.5 68 -11.9 10.5
03:45 1018 30.06 847 25.01 -6.9 19.5 68 -11.9 10.5
03:50 1018 30.06 847 25.01 -7 19.4 68 -12 10.5
03:55 1018 30.06 847 25.01 -6.8 19.8 67 -11.9 10.7
04:00 1018 30.06 847 25.01 -7 19.5 68 -11.9 10.6
04:05 1018 30.06 847 25.01 -6.9 19.7 67 -12.1 10.3
04:10 1018 30.06 847 25.01 -6.8 19.7 67 -12 10.4
04:15 1018 30.06 847 25.01 -6.9 19.5 67 -12 10.4
04:20 1018 30.06 847 25.01 -6.9 19.6 68 -11.9 10.6
04:25 1018 30.06 847 25.01 -6.9 19.6 67 -12.1 10.3
04:30 1017 30.03 847 25.01 -7 19.5 67 -12 10.3
04:35 1017 30.03 847 25.01 -6.9 19.6 65 -12.3 9.8
04:40 1017 30.03 847 25.01 -6.6 20 65 -12.1 10.2
04:45 1017 30.03 847 25.01 -6.7 20 66 -12.1 10.3
04:50 1017 30.03 847 25.01 -6.9 19.5 67 -12.2 10.1
04:55 1017 30.03 847 25.01 -7 19.4 68 -12 10.3
05:00 1017 30.03 847 25.01 -7 19.4 68 -12 10.4
05:05 1017 30.03 847 25.01 -6.8 19.7 66 -12.2 10.1
05:10 1017 30.03 847 25.01 -6.8 19.7 66 -12.1 10.2
05:15 1017 30.03 847 25.01 -7.1 19.2 67 -12.3 9.9
05:20 1017 30.03 847 25.01 -7.2 19 67 -12.3 9.9
05:25 1017 30.03 847 25.01 -7.1 19.2 67 -12.2 10
05:30 1017 30.03 847 25.01 -7.2 19 67 -12.3 9.9
05:35 1017 30.03 847 25.01 -7.2 19.1 68 -12.2 10.1
05:40 1017 30.03 847 25.01 -7.2 19.1 68 -12.2 10
05:45 1018 30.06 847 25.01 -7.1 19.2 67 -12.2 10
05:50 1018 30.06 847 25.01 -7.1 19.2 68 -12 10.3
05:55 1017 30.03 847 25.01 -7.1 19.3 68 -12.1 10.2
06:00 1017 30.03 847 25.01 -7.3 18.9 70 -11.8 10.7
06:05 1017 30.03 847 25.01 -7.3 18.8 70 -11.9 10.7
06:10 1017 30.03 847 25.01 -7.4 18.8 71 -11.7 11
06:15 1017 30.03 847 25.01 -7.4 18.7 71 -11.7 10.9
06:20 1017 30.03 847 25.01 -7.5 18.6 71 -11.8 10.8
06:25 1017 30.03 847 25.01 -7.7 18.1 72 -12 10.4
06:30 1017 30.03 847 25.01 -8 17.7 71 -12.4 9.8
06:35 1017 30.03 847 25.01 -8.3 17 72 -12.4 9.6
06:40 1017 30.03 847 25.01 -8.1 17.4 71 -12.4 9.6
06:45 1017 30.03 847 25.01 -8.3 17 71 -12.6 9.3
06:50 1017 30.03 847 25.01 -8.8 16.2 72 -13 8.6
06:55 1017 30.03 847 25.01 -8.7 16.4 71 -13 8.5
07:00 1017 30.03 847 25.01 -8.5 16.7 70 -13 8.6
07:05 1017 30.03 847 25.01 -8.6 16.5 71 -12.9 8.8
07:10 1017 30.03 847 25.01 -8.7 16.4 73 -12.7 9.2
07:15 1017 30.03 847 25.01 -8.7 16.3 75 -12.4 9.7
07:20 1017 30.03 847 25.01 -8.3 17 73 -12.3 9.8
07:25 1017 30.03 847 25.01 -8.3 17.1 73 -12.2 10
07:30 1017 30.03 847 25.01 -8.4 16.8 74 -12.4 9.7
07:35 1017 30.03 847 25.01 -8.5 16.7 74 -12.4 9.7
07:40 1017 30.03 847 25.01 -8.3 17.1 72 -12.5 9.6
07:45 1017 30.03 847 25.01 -8.4 17 73 -12.4 9.6
07:50 1017 30.03 847 25.01 -8.6 16.5 74 -12.5 9.5
07:55 1017 30.03 847 25.01 -8.6 16.6 73 -12.7 9.2
08:00 1017 30.03 847 25.01 -8.8 16.2 74 -12.7 9.2
08:05 1017 30.03 847 25.01 -8.7 16.4 73 -12.7 9.1
08:10 1017 30.03 847 25.01 -8.4 16.9 71 -12.7 9.1
08:15 1017 30.03 847 25.01 -8.2 17.3 70 -12.7 9.1
08:20 1017 30.03 847 25.01 -8 17.5 70 -12.6 9.3
08:25 1017 30.03 847 25.01 -8 17.6 70 -12.6 9.3
08:30 1017 30.03 847 25.01 -7.9 17.8 68 -12.8 9
08:35 1017 30.03 847 25.01 -7.8 18 68 -12.7 9.1
08:40 1017 30.03 847 25.01 -7.6 18.3 68 -12.6 9.3
08:45 1017 30.03 847 25.01 -7.3 18.9 65 -12.8 9
08:50 1018 30.06 847 25.01 -7.1 19.2 65 -12.6 9.4
08:55 1018 30.06 847 25.01 -6.9 19.6 64 -12.5 9.4
09:00 1018 30.06 847 25.01 -6.7 19.9 63 -12.6 9.3
09:05 1018 30.06 847 25.01 -6.6 20 62 -12.7 9.1
09:10 1018 30.06 847 25.01 -6.4 20.6 62 -12.6 9.4
09:15 1018 30.06 847 25.01 -6.1 21.1 62 -12.3 9.8
09:20 1018 30.06 847 25.01 -5.9 21.3 61 -12.3 9.8
09:25 1018 30.06 847 25.01 -5.7 21.8 60 -12.2 10
09:30 1018 30.06 847 25.01 -5.4 22.3 60 -11.9 10.5
09:35 1018 30.06 847 25.01 -4.9 23.2 57 -12.2 10.1
09:40 1018 30.06 847 25.01 -4.5 23.8 56 -12.1 10.1
09:45 1018 30.06 847 25.01 -4 24.8 55 -11.8 10.7
09:50 1018 30.06 847 25.01 -4.2 24.4 55 -11.9 10.5
09:55 1018 30.06 847 25.01 -3.8 25.2 54 -11.7 10.9
10:00 1018 30.06 847 25.01 -3.3 26 53 -11.7 11
10:05 1018 30.06 847 25.01 -4.3 24.3 57 -11.5 11.3
10:10 1018 30.06 847 25.01 -4.7 23.6 58 -11.8 10.7
10:15 1018 30.06 847 25.01 -4.2 24.4 56 -11.6 11.1
10:20 1018 30.06 847 25.01 -3.7 25.4 55 -11.4 11.5
10:25 1018 30.06 847 25.01 -3.2 26.2 52 -11.6 11.1
10:30 1018 30.06 847 25.01 -3.8 25.2 54 -11.8 10.8
10:35 1018 30.06 847 25.01 -3.4 25.9 52 -12 10.4
10:40 1018 30.06 847 25.01 -3 26.6 51 -11.7 10.9
10:45 1018 30.06 847 25.01 -2.7 27.1 51 -11.6 11.2
10:50 1018 30.06 847 25.01 -2.4 27.8 50 -11.3 11.6
10:55 1018 30.06 847 25.01 -2.2 28.1 50 -11.2 11.9
11:00 1018 30.06 847 25.01 -2.2 28.1 49 -11.5 11.4
11:05 1018 30.06 847 25.01 -1.9 28.6 49 -11.3 11.7
11:10 1018 30.06 847 25.01 -1.8 28.8 46 -11.9 10.5
11:15 1018 30.06 847 25.01 -2 28.4 52 -10.5 13
11:20 1017 30.03 847 25.01 -2.7 27.1 51 -11.4 11.4
11:25 1017 30.03 847 25.01 -2.2 28.1 48 -11.6 11
11:30 1017 30.03 847 25.01 -1.6 29 46 -11.9 10.6
11:35 1017 30.03 847 25.01 -1.5 29.4 47 -11.4 11.4
11:40 1017 30.03 847 25.01 -2.1 28.2 46 -12.2 10.1
11:45 1017 30.03 846 24.98 -1.6 29.2 45 -11.9 10.5
11:50 1017 30.03 846 24.98 -1 30.2 47 -11 12.2
11:55 1017 30.03 846 24.98 -0.7 30.8 46 -10.8 12.5
12:00 1017 30.03 846 24.98 -0.9 30.3 48 -10.6 13
12:05 1017 30.03 846 24.98 -0.7 30.7 47 -10.6 13
12:10 1017 30.03 846 24.98 -0.5 31.1 45 -11.1 12
12:15 1017 30.03 846 24.98 -0.9 30.3 47 -10.9 12.4
12:20 1017 30.03 846 24.98 -0.8 30.6 48 -10.5 13
12:25 1017 30.03 846 24.98 -1.6 29.1 49 -11 12.2
12:30 1017 30.03 846 24.98 -1.4 29.4 52 -10 14
12:35 1017 30.03 846 24.98 -2.1 28.1 51 -10.9 12.4
12:40 1017 30.03 846 24.98 -1.3 29.7 49 -10.7 12.8
12:45 1017 30.03 846 24.98 -1.3 29.6 53 -9.6 14.7
12:50 1017 30.03 846 24.98 -2.3 27.9 54 -10.5 13.2
12:55 1016 30 846 24.98 -2.2 28 56 -10 14.1
13:00 1016 30 846 24.98 -2.8 27 56 -10.4 13.2
13:05 1016 30 845 24.95 -1.7 29 53 -10.1 13.8
13:10 1016 30 845 24.95 -1.7 28.9 51 -10.6 12.9
13:15 1016 30 845 24.95 -2 28.4 53 -10.4 13.2
13:20 1016 30 845 24.95 -2.3 27.8 55 -10.3 13.5
13:25 1016 30 845 24.95 -1.6 29.2 52 -10.2 13.7
13:30 1016 30 845 24.95 -1.1 30.1 51 -10 14
13:35 1016 30 845 24.95 -0.8 30.5 47 -10.7 12.8
13:40 1016 30 845 24.95 -0.2 31.6 46 -10.5 13.1
13:45 1016 30 845 24.95 -0.7 30.8 49 -10 14
13:50 1016 30 845 24.95 -1.6 29.1 51 -10.5 13
13:55 1016 30 845 24.95 -0.6 30.9 47 -10.5 13
14:00 1016 30 845 24.95 -0.9 30.5 48 -10.5 13.1
14:05 1016 30 845 24.95 -0.7 30.7 50 -10 14
14:10 1015 29.97 845 24.95 0.2 32.3 45 -10.5 13.2
14:15 1015 29.97 845 24.95 -0.4 31.3 48 -10 14
14:20 1015 29.97 845 24.95 0.6 33.1 43 -10.6 12.9
14:25 1015 29.97 845 24.95 0.2 32.3 48 -9.6 14.8
14:30 1015 29.97 844 24.92 -0.2 31.6 45 -10.9 12.5
14:35 1015 29.97 844 24.92 0 32 47 -10.1 13.9
14:40 1015 29.97 844 24.92 -0.1 31.8 48 -9.9 14.2
14:45 1015 29.97 844 24.92 0.3 32.5 45 -10.2 13.7
14:50 1015 29.97 844 24.92 0.4 32.6 47 -9.6 14.8
14:55 1015 29.97 844 24.92 -0.3 31.4 50 -9.6 14.7
15:00 1015 29.97 844 24.92 -0.2 31.7 47 -10.3 13.5
15:05 1015 29.97 844 24.92 0.9 33.5 47 -9.1 15.6
15:10 1015 29.97 844 24.92 0.1 32.2 51 -8.9 16
15:15 1015 29.97 844 24.92 0.6 33.2 48 -9.1 15.6
15:20 1015 29.97 844 24.92 0.9 33.7 47 -9.3 15.3
15:25 1015 29.97 844 24.92 1.2 34.2 45 -9.5 14.8
15:30 1015 29.97 844 24.92 0.9 33.7 46 -9.4 15
15:35 1015 29.97 844 24.92 0 32.1 50 -9.1 15.7
15:40 1015 29.97 844 24.92 0 32 49 -9.5 15
15:45 1015 29.97 844 24.92 0.1 32.2 50 -9.2 15.4
15:50 1015 29.97 844 24.92 -0.3 31.4 50 -9.5 14.9
15:55 1015 29.97 844 24.92 -0.8 30.6 53 -9.2 15.4
16:00 1015 29.97 844 24.92 -0.4 31.2 49 -9.8 14.3
16:05 1014 29.94 844 24.92 0 32.1 45 -10.6 12.9
16:10 1014 29.94 844 24.92 0 32 43 -11 12.2
16:15 1014 29.94 844 24.92 -0.3 31.5 46 -10.6 12.9
16:20 1014 29.94 843 24.89 -0.7 30.8 48 -10.4 13.2
16:25 1014 29.94 843 24.89 -0.9 30.4 49 -10.4 13.3
16:30 1014 29.94 843 24.89 -1.1 30.1 50 -10.3 13.4
16:35 1014 29.94 843 24.89 -1.3 29.7 51 -10.1 13.7
16:40 1014 29.94 843 24.89 -1.5 29.3 51 -10.3 13.5
16:45 1014 29.94 843 24.89 -1.7 29 53 -10 14
16:50 1014 29.94 843 24.89 -1.8 28.8 54 -10 14
16:55 1014 29.94 843 24.89 -2 28.4 55 -9.8 14.4
17:00 1014 29.94 843 24.89 -2.1 28.2 56 -9.8 14.4
17:05 1014 29.94 843 24.89 -2.3 27.8 58 -9.6 14.8
17:10 1014 29.94 843 24.89 -2.6 27.3 59 -9.4 15
17:15 1014 29.94 843 24.89 -2.7 27.2 60 -9.4 15
17:20 1014 29.94 843 24.89 -2.8 27 61 -9.4 15.1
17:25 1014 29.94 843 24.89 -2.9 26.8 62 -9.1 15.6
17:30 1014 29.94 843 24.89 -3.1 26.5 63 -9.1 15.7
17:35 1014 29.94 843 24.89 -3.2 26.2 65 -9 15.8
17:40 1014 29.94 843 24.89 -3.5 25.7 67 -8.8 16.2
17:45 1014 29.94 843 24.89 -3.7 25.3 68 -8.8 16.2
17:50 1014 29.94 843 24.89 -3.8 25.2 68 -8.8 16.2
17:55 1014 29.94 843 24.89 -3.8 25.1 69 -8.7 16.4
18:00 1014 29.94 843 24.89 -3.9 25.1 69 -8.7 16.4
18:05 1014 29.94 843 24.89 -3.9 25 70 -8.7 16.4
18:10 1014 29.94 843 24.89 -4 24.8 70 -8.7 16.4
18:15 1013 29.91 843 24.89 -4 24.8 71 -8.6 16.5
18:20 1013 29.91 843 24.89 -4.1 24.6 71 -8.7 16.4
18:25 1014 29.94 843 24.89 -4.1 24.6 71 -8.6 16.4
18:30 1013 29.91 843 24.89 -4.2 24.5 72 -8.5 16.6
18:35 1013 29.91 843 24.89 -4.3 24.3 72 -8.6 16.6
18:40 1013 29.91 843 24.89 -4.3 24.2 72 -8.6 16.5
18:45 1013 29.91 843 24.89 -4.3 24.3 72 -8.5 16.6
18:50 1013 29.91 843 24.89 -4.4 24.2 71 -8.8 16.2
18:55 1013 29.91 843 24.89 -4.4 24 73 -8.5 16.7
19:00 1013 29.91 842 24.86 -4.5 23.9 73 -8.7 16.3
19:05 1013 29.91 842 24.86 -4.5 23.8 74 -8.5 16.7
19:10 1013 29.91 842 24.86 -4.6 23.7 76 -8.3 17
19:15 1013 29.91 842 24.86 -4.7 23.5 77 -8.3 17.1
19:20 1013 29.91 842 24.86 -4.8 23.3 77 -8.3 17.1
19:25 1013 29.91 842 24.86 -4.9 23.2 77 -8.3 17.1
19:30 1013 29.91 842 24.86 -4.9 23.1 78 -8.2 17.2
19:35 1013 29.91 842 24.86 -5 23 78 -8.3 17.1
19:40 1013 29.91 842 24.86 -5 22.9 79 -8.2 17.2
19:45 1013 29.91 842 24.86 -5.1 22.7 79 -8.2 17.2
19:50 1013 29.91 842 24.86 -5.2 22.6 80 -8.3 17.1
19:55 1013 29.91 842 24.86 -5.4 22.3 80 -8.2 17.2
20:00 1013 29.91 842 24.86 -5.4 22.2 81 -8.3 17.1
20:05 1013 29.91 842 24.86 -5.5 22.1 81 -8.2 17.2
20:10 1013 29.91 842 24.86 -5.6 21.9 81 -8.3 17.1
20:15 1013 29.91 842 24.86 -5.7 21.8 82 -8.3 17.1
20:20 1013 29.91 842 24.86 -5.7 21.8 82 -8.3 17
20:25 1013 29.91 842 24.86 -5.8 21.6 82 -8.3 17
20:30 1013 29.91 842 24.86 -5.8 21.5 82 -8.4 16.9
20:35 1013 29.91 842 24.86 -5.9 21.4 82 -8.4 16.8
20:40 1013 29.91 842 24.86 -6 21.2 82 -8.6 16.6
20:45 1013 29.91 842 24.86 -6.1 21 82 -8.6 16.4
20:50 1013 29.91 842 24.86 -6.1 21 82 -8.7 16.3
20:55 1013 29.91 842 24.86 -6.2 20.9 82 -8.7 16.3
21:00 1013 29.91 842 24.86 -6.2 20.8 82 -8.8 16.2
21:05 1013 29.91 842 24.86 -6.3 20.7 82 -8.8 16.1
21:10 1013 29.91 842 24.86 -6.3 20.7 82 -8.8 16.1
21:15 1013 29.91 842 24.86 -6.3 20.6 83 -8.8 16.1
21:20 1013 29.91 842 24.86 -6.4 20.6 83 -8.8 16.1
21:25 1013 29.91 842 24.86 -6.4 20.5 82 -8.9 15.9
21:30 1013 29.91 842 24.86 -6.4 20.4 83 -8.9 15.9
21:35 1013 29.91 842 24.86 -6.5 20.3 83 -8.9 16
21:40 1013 29.91 842 24.86 -6.5 20.2 83 -9 15.9
21:45 1013 29.91 842 24.86 -6.5 20.2 83 -9 15.8
21:50 1013 29.91 842 24.86 -6.6 20.2 83 -9 15.8
21:55 1013 29.91 842 24.86 -6.6 20.2 83 -8.9 15.9
22:00 1013 29.91 842 24.86 -6.6 20.1 84 -8.9 15.9
22:05 1013 29.91 842 24.86 -6.7 20 84 -8.9 15.9
22:10 1013 29.91 842 24.86 -6.7 20 83 -9.1 15.6
22:15 1013 29.91 842 24.86 -6.7 20 83 -9.1 15.5
22:20 1013 29.91 842 24.86 -6.6 20 83 -9 15.8
22:25 1013 29.91 842 24.86 -6.7 20 83 -9.1 15.6
22:30 1013 29.91 842 24.86 -6.7 19.9 83 -9.2 15.5
22:35 1013 29.91 842 24.86 -6.8 19.8 83 -9.1 15.6
22:40 1013 29.91 842 24.86 -6.8 19.8 83 -9.2 15.4
22:45 1013 29.91 842 24.86 -6.7 19.9 83 -9.1 15.6
22:50 1013 29.91 842 24.86 -6.8 19.8 84 -9 15.7
22:55 1013 29.91 842 24.86 -6.8 19.8 84 -9.1 15.7
23:00 1013 29.91 842 24.86 -6.8 19.7 85 -9 15.8
23:05 1013 29.91 842 24.86 -6.9 19.6 85 -9 15.7
23:10 1013 29.91 842 24.86 -7 19.5 85 -9 15.7
23:15 1013 29.91 842 24.86 -7 19.4 86 -9 15.8
23:20 1013 29.91 842 24.86 -7 19.4 86 -9 15.7
23:25 1013 29.91 842 24.86 -7.1 19.3 86 -9.1 15.6
23:30 1013 29.91 842 24.86 -7.1 19.2 85 -9.3 15.3
23:35 1013 29.91 842 24.86 -7.1 19.2 86 -9.2 15.5
23:40 1013 29.91 842 24.86 -7.2 19.1 86 -9.2 15.5
23:45 1013 29.91 842 24.86 -7.2 19.1 86 -9.2 15.5
23:50 1013 29.91 842 24.86 -7.2 19 86 -9.2 15.4
23:55 1013 29.91 842 24.86 -7.3 19 86 -9.2 15.4
24:00 1013 29.91 842 24.86 -7.3 19 86 -9.3 15.3